createdAt,value
2019-03-06T00:01:21.166Z,96625.88
2019-03-06T00:03:01.941Z,96623.58
2019-03-06T00:04:38.440Z,96625.71
2019-03-06T00:06:19.257Z,96620.99
2019-03-06T00:07:56.832Z,96622.58
2019-03-06T00:09:32.869Z,96617.20
2019-03-06T00:11:12.990Z,96615.08
2019-03-06T00:12:54.464Z,96609.31
2019-03-06T00:14:33.131Z,96606.91
2019-03-06T00:16:13.035Z,96607.95
2019-03-06T00:17:48.759Z,96617.98
2019-03-06T00:19:27.202Z,96605.66
2019-03-06T00:21:08.997Z,96606.61
2019-03-06T00:22:48.723Z,96606.42
2019-03-06T00:24:35.605Z,96599.86
2019-03-06T00:26:25.304Z,96606.63
2019-03-06T00:28:09.441Z,96600.27
2019-03-06T00:29:52.474Z,96596.19
2019-03-06T00:31:47.224Z,96591.55
2019-03-06T00:33:22.311Z,96588.36
2019-03-06T00:35:02.265Z,96587.48
2019-03-06T00:36:39.110Z,96590.00
2019-03-06T00:38:14.586Z,96587.83
2019-03-06T00:40:00.687Z,96596.47
2019-03-06T00:41:47.481Z,96596.86
2019-03-06T00:43:24.305Z,96595.73
2019-03-06T00:44:59.637Z,96594.34
2019-03-06T00:46:35.304Z,96603.81
2019-03-06T00:48:11.440Z,96599.19
2019-03-06T00:49:47.816Z,96604.59
2019-03-06T00:51:22.955Z,96602.77
2019-03-06T00:52:59.372Z,96606.58
2019-03-06T00:54:35.321Z,96603.48
2019-03-06T00:56:11.215Z,96609.27
2019-03-06T00:57:49.791Z,96606.86
2019-03-06T00:59:24.932Z,96608.81
2019-03-06T01:01:00.604Z,96608.23
2019-03-06T01:02:38.294Z,96616.68
2019-03-06T01:04:16.229Z,96606.44
2019-03-06T01:06:00.356Z,96606.33
2019-03-06T01:07:36.851Z,96601.74
2019-03-06T01:09:14.725Z,96609.61
2019-03-06T01:10:52.500Z,96607.41
2019-03-06T01:12:30.998Z,96603.94
2019-03-06T01:14:06.277Z,96608.06
2019-03-06T01:15:41.404Z,96608.00
2019-03-06T01:17:17.236Z,96606.83
2019-03-06T01:18:52.308Z,96607.27
2019-03-06T01:20:28.303Z,96611.71
2019-03-06T01:22:04.614Z,96606.67
2019-03-06T01:23:40.324Z,96611.96
2019-03-06T01:25:16.182Z,96617.00
2019-03-06T01:26:51.507Z,96614.66
2019-03-06T01:28:26.646Z,96621.61
2019-03-06T01:30:03.592Z,96626.98
2019-03-06T01:31:39.679Z,96637.58
2019-03-06T01:33:34.360Z,96636.69
2019-03-06T01:35:30.684Z,96639.36
2019-03-06T01:37:45.087Z,96643.94
2019-03-06T01:39:51.142Z,96637.77
2019-03-06T01:41:45.734Z,96633.67
2019-03-06T01:43:29.066Z,96623.19
2019-03-06T01:45:08.617Z,96629.70
2019-03-06T01:46:43.739Z,96630.35
2019-03-06T01:48:21.728Z,96629.95
2019-03-06T01:49:56.736Z,96633.23
2019-03-06T01:51:31.870Z,96623.95
2019-03-06T01:53:09.535Z,96630.47
2019-03-06T01:54:47.197Z,96626.11
2019-03-06T01:56:22.586Z,96623.77
2019-03-06T01:57:59.192Z,96620.42
2019-03-06T01:59:34.543Z,96615.38
2019-03-06T02:01:13.604Z,96616.11
2019-03-06T02:02:49.065Z,96617.89
2019-03-06T02:04:24.244Z,96618.81
2019-03-06T02:06:00.164Z,96617.09
2019-03-06T02:07:35.237Z,96623.60
2019-03-06T02:09:11.060Z,96620.89
2019-03-06T02:10:48.035Z,96621.66
2019-03-06T02:12:23.141Z,96620.16
2019-03-06T02:13:59.167Z,96615.27
2019-03-06T02:15:34.666Z,96612.93
2019-03-06T02:17:10.267Z,96614.83
2019-03-06T02:18:47.103Z,96609.16
2019-03-06T02:20:22.165Z,96613.55
2019-03-06T02:21:57.244Z,96609.16
2019-03-06T02:23:32.252Z,96607.28
2019-03-06T02:25:07.712Z,96618.47
2019-03-06T02:26:43.123Z,96613.47
2019-03-06T02:28:19.295Z,96603.27
2019-03-06T02:29:55.918Z,96602.34
2019-03-06T02:31:31.342Z,96607.48
2019-03-06T02:33:06.988Z,96603.61
2019-03-06T02:34:42.361Z,96604.19
2019-03-06T02:36:18.241Z,96609.29
2019-03-06T02:37:53.311Z,96610.38
2019-03-06T02:39:28.363Z,96606.67
2019-03-06T02:41:03.860Z,96618.38
2019-03-06T02:42:38.989Z,96614.98
2019-03-06T02:44:13.978Z,96615.27
2019-03-06T02:45:49.096Z,96613.45
2019-03-06T02:47:24.150Z,96614.99
2019-03-06T02:49:01.416Z,96613.23
2019-03-06T02:50:36.716Z,96613.56
2019-03-06T02:52:11.805Z,96612.21
2019-03-06T02:53:46.819Z,96611.40
2019-03-06T02:55:21.801Z,96608.87
2019-03-06T02:56:57.707Z,96609.50
2019-03-06T02:58:39.321Z,96603.05
2019-03-06T03:00:57.823Z,96607.42
2019-03-06T03:02:44.571Z,96600.47
2019-03-06T03:04:34.639Z,96612.11
2019-03-06T03:06:15.593Z,96601.05
2019-03-06T03:07:56.235Z,96594.38
2019-03-06T03:09:31.267Z,96602.00
2019-03-06T03:11:06.344Z,96600.65
2019-03-06T03:12:41.566Z,96601.56
2019-03-06T03:14:16.965Z,96608.83
2019-03-06T03:15:52.654Z,96621.73
2019-03-06T03:17:27.655Z,96618.53
2019-03-06T03:19:03.558Z,96618.89
2019-03-06T03:20:38.785Z,96613.17
2019-03-06T03:22:20.476Z,96611.94
2019-03-06T03:23:55.618Z,96613.17
2019-03-06T03:25:33.400Z,96613.60
2019-03-06T03:27:08.463Z,96619.20
2019-03-06T03:28:43.559Z,96625.72
2019-03-06T03:30:18.896Z,96621.06
2019-03-06T03:31:53.873Z,96630.91
2019-03-06T03:33:28.896Z,96635.56
2019-03-06T03:35:03.968Z,96640.21
2019-03-06T03:36:38.940Z,96644.99
2019-03-06T03:38:16.137Z,96632.20
2019-03-06T03:39:54.562Z,96631.72
2019-03-06T03:41:31.401Z,96637.22
2019-03-06T03:43:06.443Z,96613.70
2019-03-06T03:44:41.542Z,96615.64
2019-03-06T03:46:17.356Z,96619.84
2019-03-06T03:47:52.717Z,96616.08
2019-03-06T03:49:28.008Z,96615.99
2019-03-06T03:51:03.266Z,96610.16
2019-03-06T03:52:38.718Z,96611.93
2019-03-06T03:54:14.051Z,96607.63
2019-03-06T03:55:49.545Z,96600.86
2019-03-06T03:57:25.436Z,96600.21
2019-03-06T03:59:00.510Z,96602.92
2019-03-06T04:00:37.010Z,96606.16
2019-03-06T04:02:12.137Z,96605.28
2019-03-06T04:03:47.251Z,96617.88
2019-03-06T04:05:22.869Z,96612.34
2019-03-06T04:06:57.945Z,96615.58
2019-03-06T04:08:32.971Z,96620.95
2019-03-06T04:10:08.440Z,96618.70
2019-03-06T04:11:43.847Z,96621.05
2019-03-06T04:13:19.362Z,96615.47
2019-03-06T04:14:55.575Z,96622.25
2019-03-06T04:16:30.620Z,96634.09
2019-03-06T04:18:06.450Z,96626.91
2019-03-06T04:19:42.171Z,96622.48
2019-03-06T04:21:17.377Z,96621.98
2019-03-06T04:22:52.685Z,96617.10
2019-03-06T04:24:28.269Z,96616.56
2019-03-06T04:26:03.296Z,96612.17
2019-03-06T04:27:39.009Z,96603.87
2019-03-06T04:29:14.802Z,96609.97
2019-03-06T04:30:53.404Z,96609.68
2019-03-06T04:32:29.117Z,96601.66
2019-03-06T04:34:04.339Z,96603.49
2019-03-06T04:35:39.530Z,96611.33
2019-03-06T04:37:14.836Z,96609.02
2019-03-06T04:38:49.931Z,96608.97
2019-03-06T04:40:25.080Z,96608.91
2019-03-06T04:42:00.086Z,96599.02
2019-03-06T04:43:35.427Z,96598.12
2019-03-06T04:45:12.384Z,96592.52
2019-03-06T04:46:47.561Z,96592.52
2019-03-06T04:48:22.645Z,96580.09
2019-03-06T04:49:57.950Z,96570.66
2019-03-06T04:51:33.633Z,96577.67
2019-03-06T04:53:09.067Z,96578.53
2019-03-06T04:54:44.658Z,96586.95
2019-03-06T04:56:20.314Z,96586.00
2019-03-06T04:57:55.332Z,96586.53
2019-03-06T04:59:33.448Z,96590.64
2019-03-06T05:01:08.836Z,96580.23
2019-03-06T05:02:43.957Z,96572.75
2019-03-06T05:04:19.050Z,96562.50
2019-03-06T05:05:54.547Z,96553.48
2019-03-06T05:07:34.135Z,96558.05
2019-03-06T05:09:11.936Z,96551.62
2019-03-06T05:10:47.697Z,96539.84
2019-03-06T05:12:24.576Z,96537.19
2019-03-06T05:14:00.506Z,96520.04
2019-03-06T05:15:38.805Z,96505.75
2019-03-06T05:17:38.635Z,96498.33
2019-03-06T05:19:14.335Z,96489.09
2019-03-06T05:20:52.295Z,96490.44
2019-03-06T05:22:27.349Z,96481.72
2019-03-06T05:24:08.017Z,96477.13
2019-03-06T05:25:52.299Z,96469.09
2019-03-06T05:27:27.350Z,96458.20
2019-03-06T05:29:02.795Z,96452.98
2019-03-06T05:30:38.606Z,96446.38
2019-03-06T05:32:47.884Z,96441.55
2019-03-06T05:34:24.171Z,96434.43
2019-03-06T05:36:34.179Z,96421.68
2019-03-06T05:38:46.275Z,96419.62
2019-03-06T05:40:22.247Z,96414.29
2019-03-06T05:41:57.555Z,96403.75
2019-03-06T05:43:34.296Z,96391.03
2019-03-06T05:45:10.040Z,96397.10
2019-03-06T05:46:51.391Z,96388.27
2019-03-06T05:48:26.481Z,96393.09
2019-03-06T05:50:01.775Z,96392.66
2019-03-06T05:51:37.347Z,96388.06
2019-03-06T05:53:13.588Z,96386.47
2019-03-06T05:54:48.572Z,96387.12
2019-03-06T05:56:23.760Z,96383.96
2019-03-06T05:58:01.923Z,96378.96
2019-03-06T05:59:37.016Z,96374.78
2019-03-06T06:01:17.278Z,96373.02
2019-03-06T06:02:57.089Z,96368.02
2019-03-06T06:04:32.127Z,96368.19
2019-03-06T06:06:07.400Z,96361.12
2019-03-06T06:07:42.714Z,96362.60
2019-03-06T06:09:17.952Z,96360.80
2019-03-06T06:10:53.099Z,96361.97
2019-03-06T06:12:29.167Z,96360.30
2019-03-06T06:14:04.209Z,96359.13
2019-03-06T06:15:39.218Z,96362.60
2019-03-06T06:17:14.354Z,96356.89
2019-03-06T06:18:49.563Z,96359.86
2019-03-06T06:20:25.207Z,96354.67
2019-03-06T06:22:09.013Z,96352.91
2019-03-06T06:24:02.883Z,96343.63
2019-03-06T06:25:38.027Z,96352.83
2019-03-06T06:27:13.142Z,96355.53
2019-03-06T06:28:51.574Z,96349.89
2019-03-06T06:30:28.874Z,96356.89
2019-03-06T06:32:04.676Z,96356.66
2019-03-06T06:33:44.724Z,96355.48
2019-03-06T06:35:26.500Z,96361.42
2019-03-06T06:37:09.204Z,96359.13
2019-03-06T06:38:45.080Z,96359.13
2019-03-06T06:40:22.649Z,96359.84
2019-03-06T06:41:57.872Z,96353.61
2019-03-06T06:43:33.367Z,96357.67
2019-03-06T06:45:10.110Z,96350.23
2019-03-06T06:46:45.681Z,96352.11
2019-03-06T06:48:22.295Z,96351.94
2019-03-06T06:49:58.247Z,96354.59
2019-03-06T06:52:16.720Z,96355.53
2019-03-06T06:54:08.384Z,96346.14
2019-03-06T06:56:11.020Z,96347.79
2019-03-06T06:58:36.707Z,96349.58
2019-03-06T07:01:09.679Z,96338.69
2019-03-06T07:03:24.128Z,96335.09
2019-03-06T07:05:31.043Z,96326.23
2019-03-06T07:07:41.278Z,96324.98
2019-03-06T07:09:42.242Z,96312.70
2019-03-06T07:11:32.064Z,96299.87
2019-03-06T07:13:35.411Z,96288.72
2019-03-06T07:15:39.746Z,96272.30
2019-03-06T07:17:35.140Z,96265.86
2019-03-06T07:19:32.640Z,96235.91
2019-03-06T07:21:21.924Z,96231.48
2019-03-06T07:23:08.336Z,96210.92
2019-03-06T07:25:00.301Z,96186.66
2019-03-06T07:27:03.472Z,96169.86
2019-03-06T07:29:01.316Z,96142.41
2019-03-06T07:31:13.854Z,96130.28
2019-03-06T07:33:08.553Z,96111.72
2019-03-06T07:35:39.755Z,96093.55
2019-03-06T07:37:35.078Z,96062.36
2019-03-06T07:39:28.416Z,96054.82
2019-03-06T07:41:20.751Z,96046.09
2019-03-06T07:43:12.409Z,96044.30
2019-03-06T07:45:44.214Z,96032.77
2019-03-06T07:47:32.965Z,96038.36
2019-03-06T07:49:30.298Z,96023.02
2019-03-06T07:51:39.799Z,96018.89
2019-03-06T07:54:31.789Z,96014.89
2019-03-06T07:56:17.857Z,96006.79
2019-03-06T07:58:28.384Z,95996.06
2019-03-06T08:00:08.425Z,95990.17
2019-03-06T08:01:58.009Z,95982.75
2019-03-06T08:03:46.896Z,95977.09
2019-03-06T08:05:26.255Z,95977.42
2019-03-06T08:07:10.599Z,95961.73
2019-03-06T08:08:46.048Z,95957.28
2019-03-06T08:10:23.240Z,95955.52
2019-03-06T08:12:17.338Z,95954.48
2019-03-06T08:14:22.257Z,95944.39
2019-03-06T08:16:06.849Z,95941.89
2019-03-06T08:18:04.462Z,95919.31
2019-03-06T08:20:08.994Z,95932.19
2019-03-06T08:21:50.786Z,95926.29
2019-03-06T08:23:35.186Z,95923.73
2019-03-06T08:25:29.006Z,95916.59
2019-03-06T08:27:04.690Z,95920.83
2019-03-06T08:28:40.128Z,95900.95
2019-03-06T08:30:20.966Z,95891.37
2019-03-06T08:32:13.002Z,95879.30
2019-03-06T08:33:46.068Z,95871.23
2019-03-06T08:35:21.795Z,95868.23
2019-03-06T08:36:57.387Z,95877.78
2019-03-06T08:38:38.922Z,95855.30
2019-03-06T08:40:18.647Z,95836.48
2019-03-06T08:41:55.826Z,95835.41
2019-03-06T08:43:31.342Z,95825.73
2019-03-06T08:45:12.056Z,95819.98
2019-03-06T08:47:17.342Z,95813.38
2019-03-06T08:49:11.002Z,95831.05
2019-03-06T08:51:05.470Z,95820.66
2019-03-06T08:53:05.706Z,95834.44
2019-03-06T08:54:50.629Z,95836.28
2019-03-06T08:56:37.697Z,95832.95
2019-03-06T08:58:30.238Z,95834.92
2019-03-06T09:00:53.478Z,95826.05
2019-03-06T09:02:46.127Z,95825.06
2019-03-06T09:04:43.793Z,95807.55
2019-03-06T09:06:34.885Z,95808.02
2019-03-06T09:08:38.574Z,95805.05
2019-03-06T09:10:21.902Z,95801.16
2019-03-06T09:12:19.336Z,95788.91
2019-03-06T09:14:17.274Z,95781.22
2019-03-06T09:16:17.130Z,95779.41
2019-03-06T09:18:17.175Z,95778.37
2019-03-06T09:20:11.676Z,95763.08
2019-03-06T09:22:06.718Z,95770.82
2019-03-06T09:24:08.893Z,95761.28
2019-03-06T09:26:02.920Z,95756.73
2019-03-06T09:27:53.943Z,95769.72
2019-03-06T09:29:57.304Z,95759.11
2019-03-06T09:31:44.674Z,95750.11
2019-03-06T09:33:43.059Z,95745.48
2019-03-06T09:35:33.595Z,95744.73
2019-03-06T09:37:28.342Z,95739.67
2019-03-06T09:39:30.449Z,95723.16
2019-03-06T09:41:25.270Z,95714.31
2019-03-06T09:43:30.495Z,95703.77
2019-03-06T09:45:18.510Z,95708.89
2019-03-06T09:47:14.003Z,95702.25
2019-03-06T09:49:12.229Z,95687.98
2019-03-06T09:51:16.083Z,95683.89
2019-03-06T09:53:23.771Z,95675.90
2019-03-06T09:55:42.086Z,95667.38
2019-03-06T09:57:52.136Z,95646.59
2019-03-06T09:59:36.184Z,95637.32
2019-03-06T10:01:26.584Z,95621.39
2019-03-06T10:03:21.490Z,95621.00
2019-03-06T10:05:12.677Z,95622.77
2019-03-06T10:07:09.325Z,95607.52
2019-03-06T10:08:57.591Z,95608.13
2019-03-06T10:10:57.980Z,95615.24
2019-03-06T10:12:48.509Z,95606.38
2019-03-06T10:14:53.629Z,95607.27
2019-03-06T10:16:52.839Z,95596.88
2019-03-06T10:18:50.867Z,95578.81
2019-03-06T10:20:38.257Z,95582.89
2019-03-06T10:22:15.332Z,95570.09
2019-03-06T10:23:53.448Z,95573.81
2019-03-06T10:25:33.851Z,95575.30
2019-03-06T10:27:12.132Z,95563.95
2019-03-06T10:28:47.906Z,95550.02
2019-03-06T10:30:25.119Z,95548.78
2019-03-06T10:32:01.275Z,95543.99
2019-03-06T10:33:38.822Z,95560.55
2019-03-06T10:35:14.967Z,95568.89
2019-03-06T10:37:02.302Z,95570.52
2019-03-06T10:38:56.151Z,95558.08
2019-03-06T10:40:38.485Z,95561.12
2019-03-06T10:42:17.550Z,95561.74
2019-03-06T10:44:03.965Z,95576.91
2019-03-06T10:45:43.886Z,95599.49
2019-03-06T10:47:25.261Z,95604.45
2019-03-06T10:49:23.549Z,95594.31
2019-03-06T10:51:02.381Z,95597.98
2019-03-06T10:52:39.550Z,95589.08
2019-03-06T10:54:14.899Z,95592.38
2019-03-06T10:55:53.273Z,95593.60
2019-03-06T10:57:36.932Z,95579.61
2019-03-06T10:59:14.264Z,95565.80
2019-03-06T11:00:55.595Z,95575.22
2019-03-06T11:02:34.870Z,95546.72
2019-03-06T11:04:25.983Z,95553.24
2019-03-06T11:06:09.344Z,95543.31
2019-03-06T11:07:53.081Z,95539.75
2019-03-06T11:09:45.269Z,95531.33
2019-03-06T11:11:24.784Z,95527.20
2019-03-06T11:13:02.215Z,95526.86
2019-03-06T11:14:44.518Z,95525.56
2019-03-06T11:16:23.222Z,95522.59
2019-03-06T11:18:03.110Z,95520.77
2019-03-06T11:19:45.892Z,95518.05
2019-03-06T11:21:24.426Z,95512.70
2019-03-06T11:23:03.595Z,95509.69
2019-03-06T11:24:39.901Z,95500.12
2019-03-06T11:26:36.377Z,95491.77
2019-03-06T11:28:17.474Z,95486.83
2019-03-06T11:29:56.748Z,95480.56
2019-03-06T11:31:50.501Z,95476.06
2019-03-06T11:33:29.124Z,95464.28
2019-03-06T11:35:14.126Z,95475.72
2019-03-06T11:36:59.143Z,95471.61
2019-03-06T11:38:44.372Z,95472.38
2019-03-06T11:40:24.114Z,95466.08
2019-03-06T11:42:09.300Z,95467.27
2019-03-06T11:43:47.257Z,95471.13
2019-03-06T11:45:23.216Z,95461.25
2019-03-06T11:47:02.116Z,95450.37
2019-03-06T11:48:39.925Z,95463.51
2019-03-06T11:50:18.281Z,95470.88
2019-03-06T11:51:59.201Z,95470.66
2019-03-06T11:53:37.425Z,95459.41
2019-03-06T11:55:16.074Z,95459.56
2019-03-06T11:56:58.631Z,95457.14
2019-03-06T11:58:34.461Z,95463.00
2019-03-06T12:00:14.862Z,95451.66
2019-03-06T12:01:50.757Z,95444.95
2019-03-06T12:03:28.580Z,95426.13
2019-03-06T12:05:10.231Z,95420.45
2019-03-06T12:06:48.716Z,95414.82
2019-03-06T12:08:27.845Z,95428.67
2019-03-06T12:10:05.833Z,95442.78
2019-03-06T12:11:45.155Z,95412.30
2019-03-06T12:13:25.869Z,95415.66
2019-03-06T12:15:05.565Z,95431.61
2019-03-06T12:16:45.994Z,95423.25
2019-03-06T12:18:36.554Z,95415.02
2019-03-06T12:20:22.266Z,95417.22
2019-03-06T12:22:24.412Z,95406.80
2019-03-06T12:24:01.243Z,95381.75
2019-03-06T12:25:37.220Z,95384.97
2019-03-06T12:27:20.755Z,95393.00
2019-03-06T12:28:58.253Z,95401.96
2019-03-06T12:30:41.965Z,95402.36
2019-03-06T12:32:20.591Z,95393.58
2019-03-06T12:34:02.465Z,95381.28
2019-03-06T12:35:51.763Z,95371.47
2019-03-06T12:37:33.459Z,95368.55
2019-03-06T12:39:10.412Z,95362.03
2019-03-06T12:40:45.662Z,95368.05
2019-03-06T12:42:28.006Z,95360.47
2019-03-06T12:44:10.325Z,95351.50
2019-03-06T12:46:06.788Z,95343.75
2019-03-06T12:47:55.183Z,95342.52
2019-03-06T12:49:33.657Z,95326.36
2019-03-06T12:51:17.095Z,95330.96
2019-03-06T12:52:53.772Z,95332.02
2019-03-06T12:54:31.065Z,95330.05
2019-03-06T12:56:08.689Z,95331.81
2019-03-06T12:57:44.791Z,95322.31
2019-03-06T12:59:20.276Z,95322.18
2019-03-06T13:00:57.550Z,95308.00
2019-03-06T13:02:35.773Z,95318.20
2019-03-06T13:04:10.907Z,95317.97
2019-03-06T13:05:48.383Z,95323.36
2019-03-06T13:07:31.854Z,95322.66
2019-03-06T13:09:15.252Z,95320.63
2019-03-06T13:10:51.134Z,95334.30
2019-03-06T13:12:31.106Z,95309.23
2019-03-06T13:14:16.407Z,95316.30
2019-03-06T13:16:15.099Z,95310.34
2019-03-06T13:17:46.769Z,95297.75
2019-03-06T13:19:22.384Z,95311.38
2019-03-06T13:21:02.574Z,95301.88
2019-03-06T13:22:40.885Z,95299.34
2019-03-06T13:24:23.479Z,95299.55
2019-03-06T13:26:10.456Z,95285.33
2019-03-06T13:27:48.072Z,95290.94
2019-03-06T13:29:30.581Z,95281.95
2019-03-06T13:31:06.546Z,95291.67
2019-03-06T13:32:54.366Z,95287.43
2019-03-06T13:34:51.190Z,95286.00
2019-03-06T13:36:32.405Z,95294.83
2019-03-06T13:38:16.002Z,95296.73
2019-03-06T13:39:55.171Z,95290.92
2019-03-06T13:41:31.411Z,95281.88
2019-03-06T13:43:35.269Z,95283.59
2019-03-06T13:45:24.327Z,95291.58
2019-03-06T13:47:02.352Z,95295.95
2019-03-06T13:48:45.129Z,95294.98
2019-03-06T13:50:26.559Z,95292.55
2019-03-06T13:52:02.894Z,95293.16
2019-03-06T13:53:51.382Z,95277.50
2019-03-06T13:55:30.982Z,95274.77
2019-03-06T13:57:09.368Z,95281.20
2019-03-06T13:58:46.844Z,95271.62
2019-03-06T14:00:30.084Z,95266.77
2019-03-06T14:02:13.636Z,95266.98
2019-03-06T14:03:54.382Z,95266.08
2019-03-06T14:05:41.422Z,95269.22
2019-03-06T14:07:23.119Z,95268.81
2019-03-06T14:09:17.210Z,95267.71
2019-03-06T14:11:06.330Z,95253.36
2019-03-06T14:12:47.805Z,95256.90
2019-03-06T14:14:26.101Z,95259.33
2019-03-06T14:16:04.798Z,95256.81
2019-03-06T14:17:43.429Z,95266.97
2019-03-06T14:19:24.878Z,95248.96
2019-03-06T14:21:26.406Z,95252.79
2019-03-06T14:23:05.732Z,95235.59
2019-03-06T14:25:04.033Z,95245.09
2019-03-06T14:26:45.586Z,95247.95
2019-03-06T14:28:23.210Z,95257.03
2019-03-06T14:29:59.972Z,95256.85
2019-03-06T14:32:14.644Z,95264.92
2019-03-06T14:34:13.378Z,95259.38
2019-03-06T14:35:53.469Z,95265.20
2019-03-06T14:37:48.443Z,95261.33
2019-03-06T14:39:32.182Z,95270.27
2019-03-06T14:41:07.397Z,95266.75
2019-03-06T14:42:48.441Z,95259.83
2019-03-06T14:44:47.029Z,95268.52
2019-03-06T14:46:26.723Z,95258.62
2019-03-06T14:48:07.770Z,95259.52
2019-03-06T14:49:43.047Z,95265.86
2019-03-06T14:51:21.079Z,95247.16
2019-03-06T14:52:56.535Z,95251.87
2019-03-06T14:54:35.365Z,95255.17
2019-03-06T14:56:16.092Z,95254.28
2019-03-06T14:57:59.356Z,95261.11
2019-03-06T14:59:37.713Z,95264.84
2019-03-06T15:01:19.301Z,95271.20
2019-03-06T15:03:04.966Z,95268.33
2019-03-06T15:04:36.023Z,95271.67
2019-03-06T15:06:12.702Z,95262.48
2019-03-06T15:07:51.381Z,95274.55
2019-03-06T15:09:44.477Z,95270.39
2019-03-06T15:11:20.245Z,95263.09
2019-03-06T15:12:59.343Z,95267.11
2019-03-06T15:14:38.083Z,95254.21
2019-03-06T15:16:15.285Z,95244.18
2019-03-06T15:17:50.504Z,95234.83
2019-03-06T15:19:26.779Z,95230.81
2019-03-06T15:21:06.319Z,95235.66
2019-03-06T15:22:46.833Z,95222.41
2019-03-06T15:24:24.432Z,95220.48
2019-03-06T15:25:59.933Z,95224.11
2019-03-06T15:27:36.175Z,95223.83
2019-03-06T15:29:15.235Z,95226.23
2019-03-06T15:30:54.002Z,95225.20
2019-03-06T15:32:34.191Z,95229.98
2019-03-06T15:34:13.776Z,95226.75
2019-03-06T15:35:53.384Z,95216.59
2019-03-06T15:37:37.437Z,95212.86
2019-03-06T15:39:42.171Z,95217.62
2019-03-06T15:41:09.338Z,95209.16
2019-03-06T15:42:44.759Z,95207.60
2019-03-06T15:44:21.252Z,95215.65
2019-03-06T15:46:02.007Z,95200.50
2019-03-06T15:47:40.648Z,95206.18
2019-03-06T15:49:21.802Z,95201.00
2019-03-06T15:51:01.544Z,95202.09
2019-03-06T15:52:40.065Z,95207.54
2019-03-06T15:54:16.319Z,95201.00
2019-03-06T15:55:54.157Z,95205.00
2019-03-06T15:57:59.383Z,95200.16
2019-03-06T16:01:53.115Z,95188.56
2019-03-06T16:03:40.484Z,95189.04
2019-03-06T16:05:20.485Z,95193.00
2019-03-06T16:07:02.477Z,95200.66
2019-03-06T16:08:42.034Z,95199.63
2019-03-06T16:10:19.417Z,95194.56
2019-03-06T16:12:04.166Z,95199.13
2019-03-06T16:13:45.235Z,95195.60
2019-03-06T16:15:27.010Z,95200.09
2019-03-06T16:17:08.006Z,95207.19
2019-03-06T16:18:49.669Z,95204.50
2019-03-06T16:20:26.318Z,95206.55
2019-03-06T16:22:06.586Z,95214.08
2019-03-06T16:23:50.074Z,95212.53
2019-03-06T16:25:36.418Z,95213.89
2019-03-06T16:27:16.598Z,95201.74
2019-03-06T16:28:57.012Z,95206.19
2019-03-06T16:30:41.117Z,95209.73
2019-03-06T16:32:19.126Z,95202.50
2019-03-06T16:33:56.608Z,95197.98
2019-03-06T16:35:35.452Z,95194.74
2019-03-06T16:37:16.214Z,95186.75
2019-03-06T16:38:51.090Z,95191.31
2019-03-06T16:40:30.765Z,95195.89
2019-03-06T16:42:15.708Z,95181.93
2019-03-06T16:43:53.055Z,95178.39
2019-03-06T16:45:31.708Z,95175.45
2019-03-06T16:47:08.941Z,95180.98
2019-03-06T16:48:44.495Z,95181.44
2019-03-06T16:50:26.480Z,95170.06
2019-03-06T16:52:03.414Z,95174.30
2019-03-06T16:53:49.150Z,95160.33
2019-03-06T16:55:36.650Z,95159.58
2019-03-06T16:57:14.594Z,95162.92
2019-03-06T16:58:52.502Z,95160.33
2019-03-06T17:00:29.511Z,95161.75
2019-03-06T17:02:05.213Z,95159.97
2019-03-06T17:03:46.614Z,95148.06
2019-03-06T17:05:22.538Z,95151.13
2019-03-06T17:07:00.468Z,95146.89
2019-03-06T17:08:41.895Z,95140.63
2019-03-06T17:10:36.346Z,95143.49
2019-03-06T17:12:18.985Z,95138.70
2019-03-06T17:14:03.251Z,95138.78
2019-03-06T17:16:04.973Z,95147.64
2019-03-06T17:17:41.431Z,95140.14
2019-03-06T17:19:23.998Z,95139.67
2019-03-06T17:21:14.223Z,95150.86
2019-03-06T17:23:02.752Z,95152.70
2019-03-06T17:24:40.655Z,95157.06
2019-03-06T17:26:22.781Z,95157.73
2019-03-06T17:28:01.786Z,95171.94
2019-03-06T17:29:39.136Z,95174.31
2019-03-06T17:31:20.755Z,95178.73
2019-03-06T17:33:07.713Z,95189.97
2019-03-06T17:34:44.519Z,95190.80
2019-03-06T17:36:20.520Z,95203.78
2019-03-06T17:37:57.961Z,95204.63
2019-03-06T17:39:38.431Z,95219.95
2019-03-06T17:41:20.298Z,95222.66
2019-03-06T17:42:56.453Z,95224.95
2019-03-06T17:44:36.213Z,95233.95
2019-03-06T17:46:11.680Z,95229.02
2019-03-06T17:47:47.690Z,95239.30
2019-03-06T17:49:36.415Z,95247.63
2019-03-06T17:51:11.980Z,95247.19
2019-03-06T17:52:48.503Z,95254.68
2019-03-06T17:54:26.880Z,95260.13
2019-03-06T17:56:05.899Z,95254.29
2019-03-06T17:57:41.696Z,95265.76
2019-03-06T17:59:21.074Z,95264.86
2019-03-06T18:01:03.576Z,95261.20
2019-03-06T18:02:51.330Z,95264.08
2019-03-06T18:04:30.581Z,95269.27
2019-03-06T18:06:14.298Z,95278.91
2019-03-06T18:07:55.881Z,95274.96
2019-03-06T18:09:36.181Z,95281.31
2019-03-06T18:11:14.578Z,95286.30
2019-03-06T18:13:03.421Z,95294.75
2019-03-06T18:14:46.904Z,95294.87
2019-03-06T18:16:29.569Z,95300.59
2019-03-06T18:18:09.739Z,95297.66
2019-03-06T18:19:53.567Z,95295.53
2019-03-06T18:21:30.883Z,95291.88
2019-03-06T18:23:09.509Z,95288.00
2019-03-06T18:24:49.098Z,95291.34
2019-03-06T18:26:33.703Z,95296.17
2019-03-06T18:28:15.585Z,95295.57
2019-03-06T18:29:50.672Z,95300.41
2019-03-06T18:31:27.268Z,95296.64
2019-03-06T18:33:06.859Z,95289.58
2019-03-06T18:34:43.880Z,95300.47
2019-03-06T18:36:27.484Z,95308.95
2019-03-06T18:38:09.446Z,95315.63
2019-03-06T18:39:45.145Z,95318.29
2019-03-06T18:41:23.286Z,95315.63
2019-03-06T18:42:59.332Z,95314.58
2019-03-06T18:44:35.156Z,95312.58
2019-03-06T18:46:10.927Z,95311.10
2019-03-06T18:47:53.058Z,95316.98
2019-03-06T18:49:32.951Z,95311.48
2019-03-06T18:51:10.312Z,95307.59
2019-03-06T18:52:59.300Z,95303.66
2019-03-06T18:54:35.546Z,95306.41
2019-03-06T18:56:11.377Z,95299.42
2019-03-06T18:57:46.623Z,95306.52
2019-03-06T18:59:22.641Z,95310.72
2019-03-06T19:01:00.184Z,95308.06
2019-03-06T19:02:38.094Z,95303.91
2019-03-06T19:04:16.174Z,95320.09
2019-03-06T19:05:54.447Z,95318.72
2019-03-06T19:07:35.187Z,95316.17
2019-03-06T19:09:19.736Z,95324.69
2019-03-06T19:10:55.054Z,95313.42
2019-03-06T19:12:34.615Z,95314.49
2019-03-06T19:14:10.160Z,95320.52
2019-03-06T19:15:53.773Z,95323.83
2019-03-06T19:17:32.635Z,95330.20
2019-03-06T19:19:07.914Z,95332.92
2019-03-06T19:20:43.213Z,95333.56
2019-03-06T19:22:25.553Z,95333.67
2019-03-06T19:24:00.604Z,95330.52
2019-03-06T19:25:36.614Z,95330.48
2019-03-06T19:27:20.246Z,95332.75
2019-03-06T19:29:00.484Z,95332.78
2019-03-06T19:30:51.355Z,95337.24
2019-03-06T19:32:25.392Z,95344.11
2019-03-06T19:34:03.112Z,95337.44
2019-03-06T19:35:38.256Z,95337.30
2019-03-06T19:37:20.613Z,95336.86
2019-03-06T19:38:56.188Z,95341.23
2019-03-06T19:40:34.218Z,95343.21
2019-03-06T19:42:12.039Z,95340.31
2019-03-06T19:43:50.492Z,95340.17
2019-03-06T19:45:31.671Z,95343.65
2019-03-06T19:47:07.050Z,95345.01
2019-03-06T19:48:47.236Z,95344.89
2019-03-06T19:50:30.362Z,95343.36
2019-03-06T19:51:59.987Z,95341.09
2019-03-06T19:53:42.727Z,95336.86
2019-03-06T19:55:18.688Z,95335.33
2019-03-06T19:56:56.698Z,95340.20
2019-03-06T19:58:41.173Z,95332.00
2019-03-06T20:00:29.324Z,95332.75
2019-03-06T20:02:10.798Z,95327.33
2019-03-06T20:03:52.069Z,95332.25